Andreas Maehle

Recruteur en chef - FC Nordsjaelland
20 Janv 2028
Jeudi
Processus

Personnalité

Adaptabilité (19) Ambition (10) Controverse (5) Loyauté (9) Pression (15) Professionnalisme (13) Sportivité (18) Tempérament (12)

Profil

Style d'entraînement Démocratique
Diplôme National A
Détermination 12
Gestion des joueurs 12
Motivation 4
Discipline 8
Satisfaction professionnelle
100%
Fatigue
0%
Rôle Recruteur en chef
Salaire 43.2K p/s
Contrat 14.03.2030

Performance

Comportement Bon
Efficacité de l'entraînement
56%
Développement des joueurs
60%
Prévention des blessures
25%
Mise en place tactique
65%

Événements récents

A participé à une réunion de recrutement maintenant
A recommandé une cible de transfert maintenant
A participé à une réunion de recrutement maintenant
A recommandé une cible de transfert maintenant
A recommandé une cible de transfert maintenant
A recommandé une cible de transfert maintenant
A recommandé une cible de transfert maintenant
A participé à une réunion de recrutement maintenant

Suivi en cours

132
Joueur Club Statut Capacité Confiance Observé Dernière observation Dernier vote
Nicolás Fernández Mercau Independiente Négociation 137 / 143 79% 1 01.01.2028 Approuver
Facundo Torres LOSC Lille Négociation 134 / 134 67% 1 01.06.2027 Approuver
Pedro de la Vega FC Dallas Négociation 133 / 134 66% 1 01.06.2027 Approuver
Ernie Weaver AFC Wimbledon Actif 103 / 116 40% 2 30.05.2027 -
Tobias Slotsager Casertana Actif 109 / 116 40% 1 30.05.2027 -
Juan Giménez Celta Actif 109 / 131 40% 2 29.05.2027 -
Jofre Torrents Ajax Actif 127 / 132 40% 5 29.05.2027 -
Leandro Martins Benfica Actif 100 / 95 40% 1 29.05.2027 -
Daniel Vernattus Metalist Actif 88 / 91 40% 3 28.05.2027 -
Samuel Lucero Defensa y Justicia Actif 122 / 118 40% 1 28.05.2027 -
Martim Cunha Porto Actif 111 / 108 40% 2 27.05.2027 -
Kazunari Kita Real Sociedad Actif 90 / 101 40% 1 27.05.2027 -
Christos Mouzakitis Hull City Actif 136 / 129 40% 4 25.05.2027 -
Daniel Kelly Oxford United Actif 114 / 127 40% 4 25.05.2027 -
Riley Owen Trento Actif 107 / 110 40% 4 24.05.2027 -
Pietro Reggiori Pro Patria Actif 102 / 100 40% 1 24.05.2027 -
Zaïd BafdilI Sporting CP Actif 85 / 99 40% 2 23.05.2027 -
Matías Gómez Granada Actif 118 / 126 40% 4 21.05.2027 -
Zane Albarus Cambridge United Actif 89 / 91 40% 2 19.05.2027 -
Davide Bartesaghi AC Milan Actif 133 / 128 40% 5 18.05.2027 -
Joel McGregor Swindon Town Actif 91 / 91 40% 2 18.05.2027 -
Dylan Lawlor Cardiff City Actif 107 / 126 40% 2 16.05.2027 -
Finley McAllister Grimsby Town Actif 85 / 94 40% 1 14.05.2027 -
Percy Jali Free State Stars Actif 104 / 101 40% 2 13.05.2027 -
Jan Bürger Gillingham Actif 110 / 118 40% 3 07.05.2027 -
Hamish Douglas Grimsby Town Actif 102 / 92 40% 1 02.05.2027 -
Sascha Britschgi Padova Actif 109 / 126 40% 1 29.04.2027 -
Tiago Freitas Benfica Actif 110 / 117 40% 1 28.04.2027 -
Samuele di Benedetto Bari Actif 107 / 119 40% 1 27.04.2027 -
Gonçalo Oliveira Benfica Actif 116 / 124 40% 1 24.04.2027 -
Hlompho Lorch Ajax Cape Town Actif 90 / 96 40% 2 23.04.2027 -
Caleb Yirenkyi Coventry City Actif 131 / 146 40% 1 23.04.2027 -
Nahuel Ulariaga Hapoel Beer Sheva Actif 110 / 115 40% 2 30.12.2026 -
Ruben van Bommel Ferencvaros Actif 133 / 137 40% 3 30.12.2026 -
Ilyas Ansah Hull City Actif 143 / 128 40% 1 30.12.2026 -
Matvey Kislyak CSKA Moscow Actif 134 / 143 40% 1 30.12.2026 -
Tyler Fredricson Oldham Athletic Actif 91 / 108 40% 1 30.12.2026 -
Mandla Mahlangu Ajax Cape Town Actif 105 / 107 40% 2 28.12.2026 -
Luis Vázquez Birmingham Actif 144 / 124 40% 2 28.12.2026 -
Rhian Brewster Oxford United Actif 123 / 112 40% 2 28.12.2026 -
Edward Chilufya FC Midtjylland Actif 124 / 111 40% 4 26.12.2026 -
Aune Heggebø West Bromwich Albion Actif 133 / 122 40% 1 26.12.2026 Plus d'infos
Mathias Jensen FC Midtjylland Actif 100 / 116 40% 2 25.12.2026 -
Owen Lunt Crewe Alexandra Actif 88 / 100 40% 1 25.12.2026 -
Richard Koné Queens Park Rangers Actif 132 / 114 40% 1 23.12.2026 -
Cameron Archer Southampton Actif 120 / 136 40% 1 23.12.2026 -
Yousef Salech Cardiff City Actif 118 / 120 40% 1 22.12.2026 -
Mohamed-Ali Cho Hull City Actif 139 / 126 40% 1 22.12.2026 -
Kornelius Hansen Aalborg Actif 108 / 106 40% 4 21.12.2026 -
Matthew Hoppe SonderjyskE Actif 112 / 113 40% 1 21.12.2026 -
Armando Broja Burnley Actif 134 / 125 40% 1 21.12.2026 -
Nóel Atli Anórsson Aalborg Actif 96 / 95 40% 3 20.12.2026 -
Tamerlan Musaev CSKA Moscow Actif 110 / 122 40% 3 18.12.2026 -
Lassina Traoré Shakhtar Actif 129 / 118 40% 6 17.12.2026 -
Zeki Amdouni Burnley Actif 143 / 127 40% 1 17.12.2026 -
Tom Cannon Sheffield United Actif 116 / 138 40% 1 17.12.2026 -
Luciano Gondou CSKA Moscow Actif 135 / 131 40% 3 15.12.2026 -
Leandro Godoy CSKA Sofia Actif 112 / 123 40% 1 15.12.2026 -
Mees Rijks Bristol Rovers Actif 119 / 117 40% 1 15.12.2026 -
Lorent Tolaj Plymouth Argyle Actif 111 / 125 40% 1 13.12.2026 -
Fiete Arp OB Actif 126 / 130 40% 5 12.12.2026 -
Manfred Ugalde Spartak Moscow Actif 130 / 129 40% 2 09.12.2026 -
Morgan Whittaker Middlesbrough Actif 117 / 131 40% 1 09.12.2026 -
Filip Bundgaard Brondby Actif 108 / 123 40% 3 08.12.2026 -
Alexander Lyng Aalborg Actif 118 / 119 40% 1 08.12.2026 -
Krisztofer Horváth Ujpest Actif 105 / 112 40% 1 07.12.2026 -
Nathan Ordaz Metalist Actif 114 / 114 40% 1 07.12.2026 -
Yaroslav Gladyshev Dinamo Moscow Actif 122 / 128 40% 1 06.12.2026 -
Chico Banza Zamalek Actif 112 / 112 40% 1 04.12.2026 -
Aidomo Emakhu Oxford United Actif 117 / 130 40% 1 04.12.2026 -
Bénie Traoré New York City Actif 134 / 121 40% 5 02.12.2026 -
Jens Odgaard Bologna Actif 127 / 129 40% 1 30.11.2026 -
David Miculescu FCSB Actif 126 / 122 40% 4 28.11.2026 -
Ramiro Ruiz Rodríguez Atlético Tucumán Actif 114 / 117 40% 3 28.11.2026 -
Cédric Don Maccabi Haifa Actif 108 / 120 40% 1 28.11.2026 -
Youssoufa Moukoko FC Copenhagen Actif 118 / 132 40% 3 27.11.2026 Observer
Alexis Cuello San Lorenzo Actif 128 / 124 40% 2 26.11.2026 -
Eren Aydın Zira Actif 108 / 100 40% 1 26.11.2026 -
Tobias Bech AGF Actif 137 / 121 40% 7 24.11.2026 -
Bojan Radulović Huddersfield Town Actif 104 / 115 40% 1 21.11.2026 -
David Ankeye Zeleznicar Pancevo Actif 113 / 117 40% 2 20.11.2026 -
Wessam Abou Ali Columbus Crew Actif 142 / 123 40% 4 17.11.2026 -
Sead Hakšabanović Malmo FF Actif 125 / 118 40% 4 17.11.2026 -
Michele Šego Hajduk Split Actif 113 / 119 40% 1 15.11.2026 -
Bamba Dieng Crvena Zvezda Actif 138 / 132 40% 2 13.11.2026 -
Everton Bala Levski Actif 125 / 119 40% 2 13.11.2026 -
José Martínes CSKA 1948 Actif 100 / 110 40% 1 12.11.2026 -
Keagan Tau Ajax Cape Town Actif 90 / 106 40% 1 11.11.2026 -
Elison Makolli Aalborg Actif 107 / 117 40% 1 11.11.2026 Plus d'infos
Leonardo Campana New England Revolution Actif 126 / 127 40% 1 10.11.2026 -
Kristian Strømland Lien Djurgarden Actif 114 / 119 40% 2 08.11.2026 -
Themba Ngcobo SuperSport United Actif 119 / 114 40% 4 08.11.2026 -
Alexander Díaz Deportivo Riestra Actif 117 / 114 40% 1 06.11.2026 -
Tomás González Piast Actif 108 / 119 40% 3 05.11.2026 -
Agustín Módica Gimnasia y Esgrima Actif 125 / 126 40% 1 05.11.2026 -
João Simões Sporting CP Actif 133 / 135 40% 1 04.11.2026 -
Rafael Navarro St. Louis CITY SC Actif 130 / 119 40% 5 31.10.2026 -
Louis Munteanu DC United Actif 116 / 131 40% 2 31.10.2026 -
Tomás Chancalay Minnesota United FC Actif 135 / 118 40% 4 30.10.2026 -
Denzel Jubitana Neftchi Actif 123 / 120 40% 1 30.10.2026 -
Ammar Ramadan DAC Dunajska Streda Actif 130 / 126 40% 1 29.10.2026 -
Assad Al Hamlawi Universitatea Craiova Actif 123 / 122 40% 4 28.10.2026 -
Kévin Denkey FC Cincinnati Actif 116 / 128 40% 1 28.10.2026 -
Dejan Joveljić Seattle Sounders Actif 114 / 121 40% 2 24.10.2026 -
Seedy Jatta Sturm Graz Actif 112 / 114 40% 2 23.10.2026 -
Ştefan Baiaram Universitatea Craiova Actif 128 / 129 40% 1 23.10.2026 -
Martín Ojeda Orlando City Actif 124 / 139 40% 2 20.10.2026 -
Jeong Sang-Bin St. Louis CITY SC Actif 109 / 117 40% 1 18.10.2026 -
Theo Corbeanu Toronto FC Actif 127 / 129 40% 4 16.10.2026 -
Tadeo Allende Inter Miami CF Actif 132 / 112 40% 2 13.10.2026 -
Kein Sato FC Tokyo Actif 139 / 135 40% 1 10.10.2026 -
Armindo Sieb Los Angeles Football Club Actif 119 / 118 40% 1 07.10.2026 -
Max Fenger IFK Goteborg Actif 130 / 123 40% 1 06.10.2026 -
Kevin Kelsy Portland Timbers Actif 108 / 115 40% 1 27.09.2026 -
Daniel Karlsbakk Sarpsborg 08 Actif 118 / 124 40% 1 24.09.2026 -
Ibrahim Aliyu Houston Dynamo Actif 123 / 116 40% 1 23.09.2026 -
Jonás Luna Santa Clara Actif 119 / 115 40% 1 21.09.2026 -
Evidence Makgopa Orlando Pirates Actif 99 / 109 40% 1 21.09.2026 -
Etiosa Ighodaro Kaizer Chiefs Actif 123 / 113 40% 1 20.09.2026 -
Nəriman Axundzadə Columbus Crew Actif 108 / 119 40% 1 20.09.2026 -
Matheus Nascimento FC Dallas Actif 104 / 113 40% 1 18.09.2026 -
Indiana Vassilev Philadelphia Union Actif 129 / 125 40% 1 17.09.2026 -
Alberto Soro Dinamo Bucharest Actif 109 / 117 40% 1 16.09.2026 -
Milan Iloski Philadelphia Union Actif 125 / 115 40% 1 11.09.2026 -
Ezekiel Kwame Alladoh Philadelphia Union Actif 99 / 126 40% 1 11.09.2026 -
Marko Divković Brondby Actif 123 / 113 40% 1 07.09.2026 -
Rasmus Falk OB Actif 129 / 128 65% 1 31.08.2026 Approuver
Furkan Demir Rapid Wien Actif 107 / 121 40% 1 31.08.2026 -
Philippe Ndinga Philadelphia Union Actif 112 / 128 40% 1 24.08.2026 -
Rasmus Carstensen AGF Actif 123 / 121 40% 1 04.08.2026 -
Erik Thommy LA Galaxy Actif 121 / 114 40% 1 01.08.2026 -
Dwight McNeil Crystal Palace Actif 147 / 133 40% 1 01.08.2026 -